Portada
METAR-TAF:

METAR-TAF

Aeroports :

Doncaster, Anglaterra

latitud: 53-29N, longitud: 001-00W, altitud: 17 m

Observació

L'informe es va fer fa 30 minuts, a les 20:50 UTC
Vent 3 kt del Est/Sud-Est
Temperatura 19°C
Humitat 73%
Pressió 1018 hPa
Visibilitat 10 km o més
sense núvols per sota de 1500 mi sense presència de cumulonimbus.

METAR: EGCN 242050Z 12003KT CAVOK 19/14 Q1018

Hora: 22:20 (21:20 UTC)

Pronòstic

L'informe es va fer fa 4 hores i 25 minuts, a les 16:55 UTC
Pronòstic vàlid del 24 a les 18 UTC al 25 a les 18 UTC
Vent 4 kt del Est/Sud-Est
Visibilitat 10 km o més
Escasses núvols a una alçada de 4500 ft
Probabilitat 30%
l' 25 a les 00 UTC al 25 a les 09 UTC
Visibilitat: 8000 m

TAF: EGCN 241655Z 2418/2518 12004KT 9999 FEW045 PROB30 2500/2509 8000

Observacions i pronòstics meteorològics de més de 4000 aeroports (METAR i TAF).

Les estacions disponibles són els punts grocs i vermells al mapa.

Posi el ratolí al punt desitjat per veure el nom de l'estació.

Feu clic per veure les observacions i els pronòstics meteorològics.

Per canviar el mapa: feu clic els botons verds amb una creu de color negre per apropar; al botó verd amb un guió per allunyar la imatge; o en les fletxes verdes per a mapes adjacents.


METAR-TAF: